Weather at Kayseri Erkilet Airport

Public forecast

Using degrees Celsius for public forecast. Weather courtesy of forecast.io.

Current aviation weather report (METAR) for Kayseri Erkilet Airport

Retrieved 2020/12/01 04:39 UTC (5 minutes ago):

LTAU 010439Z 05005KT 350V070 9999 SCT035 BKN100 04/01 Q1016 RERA NOSIG RMK RWY07 05005KT 020V080

Aviation forecast (TAF) for Kayseri Erkilet Airport

Retrieved 2020-12-01 00:00 UTC (5 hours ago):

TAF LTAU 302240Z 0100/0124 VRB02KT 9999 BKN035 BKN100 TEMPO 0100/0104 -RA PROB40 TEMPO 0112/0116 -RA